Time;durP1;ratioP1;P1;durP2;ratioP2;P2;SDS_P1;SDS_P2;PMS_P1;PMS_P2;Temp;Humidity;BMP_temperature;BMP_pressure;BME280_temperature;BME280_humidity;BME280_pressure;Samples;Min_cycle;Max_cycle;Signal;HPM_P1;HPM_P2
2022/05/18 00:14:03;;;;;;;;;;;;;;;;;;;;;
2022/05/18 00:35:22;;;;;;;12.55;9.27;;;;;;;;;;4950138;29;20051;-83
2022/05/18 00:44:04;;;;;;;14.52;9.23;;;;;;;;;;4938826;28;20039;-83
2022/05/18 01:25:25;;;;;;;8.45;7.25;;;;;;;;;;4929904;28;20043;-85
2022/05/18 03:18:51;;;;;;;13.57;9.80;;;;;;;;;;5000613;28;20046;-83
2022/05/18 03:30:57;;;;;;;12.85;10.50;;;;;;;;;;5002147;28;20482;-83
2022/05/18 03:51:31;;;;;;;17.55;10.88;;;;;;;;;;4898230;29;20040;-82
2022/05/18 04:01:51;;;;;;;18.25;10.15;;;;;;;;;;4953417;29;20039;-83
2022/05/18 04:04:39;;;;;;;13.32;9.95;;;;;;;;;;4953802;29;20043;-83
2022/05/18 04:07:29;;;;;;;12.75;9.75;;;;;;;;;;4961052;28;20050;-82
2022/05/18 04:10:15;;;;;;;10.40;9.30;;;;;;;;;;5013739;28;20049;-83
2022/05/18 04:13:01;;;;;;;12.18;8.23;;;;;;;;;;5013694;28;20409;-82
2022/05/18 04:15:47;;;;;;;12.07;8.27;;;;;;;;;;5020600;28;20397;-82
2022/05/18 04:18:32;;;;;;;12.65;8.15;;;;;;;;;;5015898;28;20046;-82
2022/05/18 04:21:17;;;;;;;11.65;7.95;;;;;;;;;;5039880;28;20045;-83
2022/05/18 04:24:03;;;;;;;8.00;6.38;;;;;;;;;;5040257;28;20045;-84
2022/05/18 04:26:48;;;;;;;11.60;8.88;;;;;;;;;;5033486;28;20042;-83
2022/05/18 04:29:34;;;;;;;8.95;7.55;;;;;;;;;;5026927;28;20045;-83
2022/05/18 04:32:20;;;;;;;10.75;9.48;;;;;;;;;;5026091;28;20045;-84
2022/05/18 04:35:08;;;;;;;11.38;10.18;;;;;;;;;;5025390;28;20416;-83
2022/05/18 04:37:53;;;;;;;14.73;10.00;;;;;;;;;;5023879;28;20053;-82
2022/05/18 04:40:39;;;;;;;12.02;10.07;;;;;;;;;;5017871;28;20054;-82
2022/05/18 04:43:24;;;;;;;10.00;8.93;;;;;;;;;;5027171;28;20489;-83
2022/05/18 04:46:10;;;;;;;14.65;10.52;;;;;;;;;;5024047;28;20469;-81
2022/05/18 04:48:55;;;;;;;15.93;10.60;;;;;;;;;;5030954;28;20050;-82
2022/05/18 04:51:41;;;;;;;10.90;9.73;;;;;;;;;;5043688;28;20041;-80
2022/05/18 04:54:27;;;;;;;13.15;10.32;;;;;;;;;;5044184;28;20049;-79
2022/05/18 04:57:14;;;;;;;13.07;7.78;;;;;;;;;;5043993;28;20045;-80
2022/05/18 04:59:59;;;;;;;14.38;9.25;;;;;;;;;;5042655;28;20046;-82
2022/05/18 05:02:44;;;;;;;12.70;9.85;;;;;;;;;;5042463;28;20049;-84
2022/05/18 05:05:30;;;;;;;12.07;10.02;;;;;;;;;;5042280;28;20041;-82
2022/05/18 05:08:15;;;;;;;11.70;9.35;;;;;;;;;;5038354;28;20062;-83
2022/05/18 05:11:02;;;;;;;12.10;9.63;;;;;;;;;;5036739;28;20045;-81
2022/05/18 05:13:47;;;;;;;11.63;9.98;;;;;;;;;;5036624;28;20045;-82
2022/05/18 05:16:33;;;;;;;11.55;9.75;;;;;;;;;;5043333;28;20049;-81
2022/05/18 05:19:19;;;;;;;11.10;9.55;;;;;;;;;;5036858;28;20058;-82
2022/05/18 05:22:04;;;;;;;9.52;8.52;;;;;;;;;;5036238;28;20049;-82
2022/05/18 05:24:50;;;;;;;7.85;4.85;;;;;;;;;;5036536;28;20045;-81
2022/05/18 05:27:36;;;;;;;9.50;4.03;;;;;;;;;;5043083;28;20049;-79
2022/05/18 05:30:21;;;;;;;8.27;4.47;;;;;;;;;;5042714;28;20393;-80
2022/05/18 05:33:07;;;;;;;8.80;4.90;;;;;;;;;;5042645;28;20057;-80
2022/05/18 05:35:52;;;;;;;9.35;3.65;;;;;;;;;;5040598;28;20041;-79
2022/05/18 05:38:38;;;;;;;7.72;5.00;;;;;;;;;;5041036;28;20050;-81
2022/05/18 05:41:26;;;;;;;9.35;4.80;;;;;;;;;;5042474;28;20399;-80
2022/05/18 05:44:13;;;;;;;7.90;5.45;;;;;;;;;;5041967;28;20041;-81
2022/05/18 05:47:03;;;;;;;10.93;6.38;;;;;;;;;;5042380;28;20046;-80
2022/05/18 05:49:48;;;;;;;8.70;6.55;;;;;;;;;;5042145;28;20488;-80
2022/05/18 05:52:34;;;;;;;11.90;7.38;;;;;;;;;;5041283;28;20392;-78
2022/05/18 05:55:19;;;;;;;7.70;6.38;;;;;;;;;;5041899;28;20045;-80
2022/05/18 05:58:05;;;;;;;18.45;9.10;;;;;;;;;;5041662;28;20481;-80
2022/05/18 06:00:51;;;;;;;20.60;10.95;;;;;;;;;;5035511;28;20037;-80
2022/05/18 06:03:36;;;;;;;16.13;12.20;;;;;;;;;;5042427;28;20033;-80
2022/05/18 06:06:22;;;;;;;13.10;8.57;;;;;;;;;;5041550;28;20049;-81
2022/05/18 06:09:07;;;;;;;9.15;6.40;;;;;;;;;;5042234;28;20053;-81
2022/05/18 06:11:53;;;;;;;9.63;5.40;;;;;;;;;;5035431;28;20049;-81
2022/05/18 06:14:43;;;;;;;7.18;5.50;;;;;;;;;;5042262;28;20045;-80
2022/05/18 06:17:28;;;;;;;11.10;6.20;;;;;;;;;;5042319;28;20049;-78
2022/05/18 06:20:14;;;;;;;10.60;5.55;;;;;;;;;;5041876;28;20045;-79
2022/05/18 06:23:02;;;;;;;12.40;6.38;;;;;;;;;;5041769;28;20054;-79
2022/05/18 06:25:48;;;;;;;13.35;6.97;;;;;;;;;;5041594;28;20053;-80
2022/05/18 06:28:36;;;;;;;8.55;6.82;;;;;;;;;;5035375;28;20046;-80
2022/05/18 06:31:21;;;;;;;14.40;8.27;;;;;;;;;;5042158;28;20045;-79
2022/05/18 06:34:07;;;;;;;17.48;7.30;;;;;;;;;;5041573;28;20057;-82
2022/05/18 06:36:52;;;;;;;9.82;7.30;;;;;;;;;;5035201;28;20037;-79
2022/05/18 06:39:37;;;;;;;11.05;7.20;;;;;;;;;;5041528;28;20412;-78
2022/05/18 06:42:22;;;;;;;11.15;6.80;;;;;;;;;;5041533;28;20045;-80
2022/05/18 06:45:11;;;;;;;14.70;7.78;;;;;;;;;;5026966;28;20046;-78
2022/05/18 06:47:56;;;;;;;10.77;6.97;;;;;;;;;;5041378;28;20116;-78
2022/05/18 06:50:42;;;;;;;10.60;6.43;;;;;;;;;;5041361;28;20045;-79
2022/05/18 06:53:27;;;;;;;8.77;6.82;;;;;;;;;;5041469;28;20049;-79
2022/05/18 06:56:12;;;;;;;8.38;6.05;;;;;;;;;;5034687;28;20049;-78
2022/05/18 06:58:58;;;;;;;11.73;5.88;;;;;;;;;;5034637;28;20045;-82
2022/05/18 07:01:44;;;;;;;11.73;6.22;;;;;;;;;;5040995;28;20053;-80
2022/05/18 07:04:29;;;;;;;7.30;4.65;;;;;;;;;;5040958;28;20046;-79
2022/05/18 07:07:14;;;;;;;11.73;6.10;;;;;;;;;;5038428;28;20045;-80
2022/05/18 07:10:01;;;;;;;10.40;6.28;;;;;;;;;;5041120;28;20057;-78
2022/05/18 07:12:46;;;;;;;6.10;4.40;;;;;;;;;;5034649;28;20045;-79
2022/05/18 07:15:31;;;;;;;7.85;5.20;;;;;;;;;;5033946;28;20042;-78
2022/05/18 07:18:17;;;;;;;6.07;4.20;;;;;;;;;;5040136;28;20060;-77
2022/05/18 07:21:06;;;;;;;8.57;5.15;;;;;;;;;;5041107;28;20053;-79
2022/05/18 07:23:52;;;;;;;9.45;5.22;;;;;;;;;;5041291;28;20476;-78
2022/05/18 07:26:38;;;;;;;6.50;4.10;;;;;;;;;;5045208;28;20045;-79
2022/05/18 07:29:24;;;;;;;9.15;4.70;;;;;;;;;;5043360;28;20049;-76
2022/05/18 07:32:09;;;;;;;7.10;5.15;;;;;;;;;;5035347;28;20053;-76
2022/05/18 07:34:54;;;;;;;6.22;4.10;;;;;;;;;;5041382;28;20057;-78
2022/05/18 07:37:40;;;;;;;7.18;5.10;;;;;;;;;;5040520;28;20045;-80
2022/05/18 07:40:25;;;;;;;6.68;4.00;;;;;;;;;;5025505;28;20049;-79
2022/05/18 07:43:11;;;;;;;11.10;4.32;;;;;;;;;;5040128;28;20480;-78
2022/05/18 07:45:57;;;;;;;5.55;4.22;;;;;;;;;;5033959;28;20404;-78
2022/05/18 07:48:42;;;;;;;7.50;4.40;;;;;;;;;;5040611;28;20045;-79
2022/05/18 07:51:28;;;;;;;7.65;4.40;;;;;;;;;;5040484;28;20049;-78
2022/05/18 07:54:14;;;;;;;10.50;4.53;;;;;;;;;;5040513;28;20049;-78
2022/05/18 07:57:00;;;;;;;5.40;3.67;;;;;;;;;;5039997;28;20049;-78
2022/05/18 07:59:45;;;;;;;4.13;2.70;;;;;;;;;;5040623;28;20053;-79
2022/05/18 08:02:32;;;;;;;9.00;4.47;;;;;;;;;;5040425;28;20396;-79
2022/05/18 08:05:18;;;;;;;5.88;3.42;;;;;;;;;;5018315;28;20038;-79
2022/05/18 08:08:12;;;;;;;5.45;3.58;;;;;;;;;;5035686;28;20484;-79
2022/05/18 08:17:04;;;;;;;9.43;4.13;;;;;;;;;;5040093;28;20049;-77
2022/05/18 08:19:50;;;;;;;7.13;4.00;;;;;;;;;;5034155;28;20038;-78
2022/05/18 08:22:35;;;;;;;11.05;3.08;;;;;;;;;;5033290;28;20041;-77
2022/05/18 08:25:21;;;;;;;6.25;3.50;;;;;;;;;;5039622;28;20045;-78
2022/05/18 08:28:08;;;;;;;8.13;3.42;;;;;;;;;;5040350;28;20473;-77
2022/05/18 08:30:55;;;;;;;11.65;3.95;;;;;;;;;;5037585;28;20053;-77
2022/05/18 08:33:41;;;;;;;6.63;4.28;;;;;;;;;;5037439;28;20049;-80
2022/05/18 08:36:27;;;;;;;3.28;2.63;;;;;;;;;;5037608;28;20512;-77
2022/05/18 08:39:12;;;;;;;8.23;3.85;;;;;;;;;;5028593;28;20050;-77
2022/05/18 08:42:00;;;;;;;7.53;3.50;;;;;;;;;;5043706;28;20053;-76
2022/05/18 08:44:46;;;;;;;8.15;4.00;;;;;;;;;;5044104;28;20041;-78
2022/05/18 08:47:40;;;;;;;10.88;3.70;;;;;;;;;;5044000;28;20041;-78
2022/05/18 08:50:26;;;;;;;6.18;3.15;;;;;;;;;;5043739;28;20045;-79
2022/05/18 08:53:28;;;;;;;5.13;2.90;;;;;;;;;;5036995;28;20050;-81
2022/05/18 08:56:25;;;;;;;4.32;2.40;;;;;;;;;;5036597;28;20042;-79
2022/05/18 08:59:22;;;;;;;7.95;3.50;;;;;;;;;;5043289;28;20420;-80
2022/05/18 09:02:20;;;;;;;6.07;3.08;;;;;;;;;;5043410;28;20049;-80
2022/05/18 09:05:13;;;;;;;4.05;3.10;;;;;;;;;;5043455;28;20045;-78
2022/05/18 09:08:16;;;;;;;4.25;2.80;;;;;;;;;;5038694;28;20053;-79
2022/05/18 09:11:21;;;;;;;6.28;2.70;;;;;;;;;;5043535;28;20042;-79
2022/05/18 09:14:09;;;;;;;6.95;3.15;;;;;;;;;;5043017;28;20053;-79
2022/05/18 09:17:09;;;;;;;3.67;2.10;;;;;;;;;;5043671;28;20057;-78
2022/05/18 09:20:11;;;;;;;7.07;2.40;;;;;;;;;;5042997;28;20049;-81
2022/05/18 09:23:03;;;;;;;3.90;2.42;;;;;;;;;;5042872;28;20045;-79
2022/05/18 09:26:06;;;;;;;3.67;1.90;;;;;;;;;;5043136;28;20049;-79
2022/05/18 09:28:57;;;;;;;4.40;1.80;;;;;;;;;;5042874;28;20361;-80
2022/05/18 09:31:49;;;;;;;7.15;1.60;;;;;;;;;;5036454;28;20053;-80
2022/05/18 09:35:12;;;;;;;8.02;1.80;;;;;;;;;;5036106;28;20041;-81
2022/05/18 09:38:03;;;;;;;6.05;1.27;;;;;;;;;;5043246;28;20045;-81
2022/05/18 09:40:50;;;;;;;6.13;1.70;;;;;;;;;;5041965;28;20046;-81
2022/05/18 09:43:45;;;;;;;4.97;1.23;;;;;;;;;;5042937;28;20042;-79
2022/05/18 09:46:31;;;;;;;7.32;1.55;;;;;;;;;;5042828;28;20041;-80
2022/05/18 09:49:25;;;;;;;7.45;1.88;;;;;;;;;;5042642;28;20053;-80
2022/05/18 09:52:13;;;;;;;4.03;2.00;;;;;;;;;;5036411;28;20380;-81
2022/05/18 09:55:01;;;;;;;3.20;1.73;;;;;;;;;;5042347;28;20054;-80
2022/05/18 09:58:01;;;;;;;11.23;2.13;;;;;;;;;;5042635;28;20045;-81
2022/05/18 10:00:46;;;;;;;7.60;2.10;;;;;;;;;;5042685;28;20051;-79
2022/05/18 10:10:21;;;;;;;5.60;1.88;;;;;;;;;;5043373;28;20396;-80
2022/05/18 10:13:13;;;;;;;6.72;1.70;;;;;;;;;;5042403;28;20053;-80
2022/05/18 10:16:28;;;;;;;7.93;1.90;;;;;;;;;;5042219;28;20045;-79
2022/05/18 10:19:51;;;;;;;5.47;1.90;;;;;;;;;;5042446;28;20045;-81
2022/05/18 10:22:41;;;;;;;2.25;1.30;;;;;;;;;;4986662;28;20041;-80
2022/05/18 10:25:47;;;;;;;2.80;1.33;;;;;;;;;;5041934;28;20500;-80
2022/05/18 10:28:32;;;;;;;2.20;1.10;;;;;;;;;;5042037;28;20045;-79
2022/05/18 10:31:31;;;;;;;4.30;1.60;;;;;;;;;;5035111;28;20042;-81
2022/05/18 10:34:29;;;;;;;3.33;1.00;;;;;;;;;;5042075;28;20045;-80
2022/05/18 10:37:43;;;;;;;6.03;1.60;;;;;;;;;;5039964;28;20053;-80
2022/05/18 10:40:29;;;;;;;2.67;1.35;;;;;;;;;;5040888;28;20045;-79
2022/05/18 10:43:33;;;;;;;5.18;1.70;;;;;;;;;;5039401;28;20041;-82
2022/05/18 10:46:39;;;;;;;4.80;1.60;;;;;;;;;;5039686;28;20046;-80
2022/05/18 10:49:32;;;;;;;3.75;1.95;;;;;;;;;;5039242;28;20046;-80
2022/05/18 10:52:30;;;;;;;4.90;1.80;;;;;;;;;;5024489;28;20057;-79
2022/05/18 10:55:22;;;;;;;5.95;1.52;;;;;;;;;;5041318;28;20045;-81
2022/05/18 10:58:25;;;;;;;5.55;1.60;;;;;;;;;;5014745;28;20057;-81
2022/05/18 11:01:28;;;;;;;11.55;1.65;;;;;;;;;;5021663;28;20041;-82
2022/05/18 11:04:44;;;;;;;4.28;1.95;;;;;;;;;;5021474;28;20042;-81
2022/05/18 11:07:30;;;;;;;2.58;1.45;;;;;;;;;;5015172;28;20053;-81
2022/05/18 11:10:15;;;;;;;4.15;1.42;;;;;;;;;;5020909;28;20046;-82
2022/05/18 11:13:21;;;;;;;4.18;1.60;;;;;;;;;;5014327;28;20042;-83
2022/05/18 11:16:23;;;;;;;9.07;2.00;;;;;;;;;;5040653;28;20200;-80
2022/05/18 11:19:45;;;;;;;4.38;1.50;;;;;;;;;;5040545;28;20049;-80
2022/05/18 11:23:05;;;;;;;5.07;1.60;;;;;;;;;;5040409;28;20045;-82
2022/05/18 11:26:01;;;;;;;7.45;1.58;;;;;;;;;;5040905;28;20049;-80
2022/05/18 11:29:11;;;;;;;6.85;1.65;;;;;;;;;;5022365;28;20449;-80
2022/05/18 11:32:02;;;;;;;0.77;0.70;;;;;;;;;;5031917;28;20045;-81
2022/05/18 11:35:04;;;;;;;1.73;1.20;;;;;;;;;;5040970;28;20053;-80
2022/05/18 11:37:58;;;;;;;3.60;1.25;;;;;;;;;;5031263;28;20041;-78
2022/05/18 11:41:08;;;;;;;2.60;1.30;;;;;;;;;;5038260;28;20049;-80
2022/05/18 11:44:10;;;;;;;1.65;1.00;;;;;;;;;;5023165;28;20428;-82
2022/05/18 11:47:01;;;;;;;0.80;0.75;;;;;;;;;;5039912;28;20046;-79
2022/05/18 11:50:06;;;;;;;1.63;0.80;;;;;;;;;;5040688;28;20049;-80
2022/05/18 11:53:17;;;;;;;4.47;1.60;;;;;;;;;;5025246;28;20053;-79
2022/05/18 11:56:26;;;;;;;2.30;1.15;;;;;;;;;;5033743;28;20053;-81
2022/05/18 11:59:31;;;;;;;2.75;1.20;;;;;;;;;;5033391;28;20038;-80
2022/05/18 12:02:20;;;;;;;4.60;1.50;;;;;;;;;;5040254;28;20050;-82
2022/05/18 12:05:25;;;;;;;5.05;1.23;;;;;;;;;;5031715;28;20500;-80
2022/05/18 12:08:27;;;;;;;3.60;1.30;;;;;;;;;;5044391;28;20404;-80
2022/05/18 12:11:28;;;;;;;2.50;1.27;;;;;;;;;;5027225;28;20041;-81
2022/05/18 12:14:32;;;;;;;12.02;1.17;;;;;;;;;;5060240;28;20061;-80
2022/05/18 12:17:18;;;;;;;4.83;1.10;;;;;;;;;;5060857;28;20392;-81
2022/05/18 12:20:08;;;;;;;3.08;1.40;;;;;;;;;;5044889;28;20274;-81
2022/05/18 12:22:57;;;;;;;2.85;1.20;;;;;;;;;;5059758;28;20045;-81
2022/05/18 12:25:44;;;;;;;1.95;0.90;;;;;;;;;;5059700;28;20041;-81
2022/05/18 12:28:30;;;;;;;2.70;1.02;;;;;;;;;;5045301;28;20041;-81
2022/05/18 12:31:16;;;;;;;14.18;1.80;;;;;;;;;;5032689;28;20049;-82
2022/05/18 12:34:33;;;;;;;5.60;1.60;;;;;;;;;;5019817;28;20485;-83
2022/05/18 12:37:31;;;;;;;4.03;1.20;;;;;;;;;;5020418;28;20037;-80
2022/05/18 12:40:31;;;;;;;10.25;1.70;;;;;;;;;;5029447;28;20404;-81
2022/05/18 12:43:23;;;;;;;2.88;1.20;;;;;;;;;;5039735;28;20049;-80
2022/05/18 12:46:22;;;;;;;3.85;1.40;;;;;;;;;;5041349;28;20049;-79
2022/05/18 12:49:16;;;;;;;1.15;1.02;;;;;;;;;;5020336;28;20050;-80
2022/05/18 12:52:38;;;;;;;1.15;0.77;;;;;;;;;;5023227;28;20037;-80
2022/05/18 12:55:32;;;;;;;1.67;0.90;;;;;;;;;;5009928;28;20045;-81
2022/05/18 12:58:27;;;;;;;3.92;1.48;;;;;;;;;;5035703;28;20045;-81
2022/05/18 13:01:17;;;;;;;2.55;1.17;;;;;;;;;;5055031;28;20036;-80
2022/05/18 13:04:26;;;;;;;0.98;0.80;;;;;;;;;;5040854;28;20049;-80
2022/05/18 13:07:19;;;;;;;9.43;1.90;;;;;;;;;;5035172;28;20046;-79
2022/05/18 13:10:12;;;;;;;3.60;1.10;;;;;;;;;;5043570;28;20049;-81
2022/05/18 13:13:23;;;;;;;2.38;1.10;;;;;;;;;;5037555;28;20065;-78
2022/05/18 13:16:09;;;;;;;6.82;0.95;;;;;;;;;;5047015;28;20061;-80
2022/05/18 13:18:59;;;;;;;4.90;1.30;;;;;;;;;;5042784;28;20392;-81
2022/05/18 13:21:51;;;;;;;5.88;1.20;;;;;;;;;;5047486;28;20049;-80
2022/05/18 13:24:49;;;;;;;1.65;1.08;;;;;;;;;;5042755;28;20045;-81
2022/05/18 13:27:35;;;;;;;1.17;1.00;;;;;;;;;;5043039;28;20441;-81
2022/05/18 13:30:35;;;;;;;2.33;1.23;;;;;;;;;;5035824;28;20046;-81
2022/05/18 13:33:21;;;;;;;1.63;0.90;;;;;;;;;;5035065;28;20053;-81
2022/05/18 13:36:06;;;;;;;2.95;1.00;;;;;;;;;;5035519;28;20472;-82
2022/05/18 13:38:52;;;;;;;6.80;1.30;;;;;;;;;;5042625;28;20049;-79
2022/05/18 13:41:42;;;;;;;1.35;1.00;;;;;;;;;;5042816;28;20049;-80
2022/05/18 13:44:30;;;;;;;5.53;1.40;;;;;;;;;;5042237;28;20041;-81
2022/05/18 13:47:38;;;;;;;2.67;0.90;;;;;;;;;;5042439;28;20053;-80
2022/05/18 13:50:31;;;;;;;6.82;1.17;;;;;;;;;;5035695;28;20041;-81
2022/05/18 13:53:25;;;;;;;3.40;1.33;;;;;;;;;;5042540;28;20049;-80
2022/05/18 13:56:20;;;;;;;2.90;0.90;;;;;;;;;;5042421;28;20045;-80
2022/05/18 13:59:14;;;;;;;3.22;1.15;;;;;;;;;;5035499;28;20046;-82
2022/05/18 14:02:03;;;;;;;6.72;0.90;;;;;;;;;;5042502;28;20049;-83
2022/05/18 14:04:54;;;;;;;6.97;1.40;;;;;;;;;;5028570;28;20053;-81
2022/05/18 14:07:43;;;;;;;4.28;1.27;;;;;;;;;;5018840;28;20046;-82
2022/05/18 14:10:30;;;;;;;1.80;0.90;;;;;;;;;;5041543;28;20053;-80
2022/05/18 14:13:15;;;;;;;1.35;0.80;;;;;;;;;;5042127;28;20057;-80
2022/05/18 14:16:00;;;;;;;4.35;1.20;;;;;;;;;;5042067;28;20116;-79
2022/05/18 14:18:52;;;;;;;3.92;1.05;;;;;;;;;;5039677;28;20508;-81
2022/05/18 14:21:40;;;;;;;5.03;1.20;;;;;;;;;;5041959;28;20053;-80
2022/05/18 14:24:32;;;;;;;3.72;1.25;;;;;;;;;;5042009;28;20042;-79
2022/05/18 14:27:32;;;;;;;10.45;1.40;;;;;;;;;;5041703;28;20046;-82
2022/05/18 14:30:21;;;;;;;4.88;1.20;;;;;;;;;;5035253;28;20488;-80
2022/05/18 14:33:12;;;;;;;4.40;1.00;;;;;;;;;;5034889;28;20045;-80
2022/05/18 14:36:02;;;;;;;4.57;1.10;;;;;;;;;;5039770;28;20041;-81
2022/05/18 14:38:52;;;;;;;5.20;1.05;;;;;;;;;;5034781;28;20053;-79
2022/05/18 14:41:43;;;;;;;2.88;1.13;;;;;;;;;;5035206;28;20045;-79
2022/05/18 14:44:40;;;;;;;8.15;1.20;;;;;;;;;;5025351;28;20042;-80
2022/05/18 14:47:29;;;;;;;4.47;1.05;;;;;;;;;;5040474;28;20042;-82
2022/05/18 14:50:18;;;;;;;4.47;0.98;;;;;;;;;;5028588;28;20053;-80
2022/05/18 14:53:14;;;;;;;1.70;0.90;;;;;;;;;;5036491;28;20042;-80
2022/05/18 14:56:07;;;;;;;3.33;1.20;;;;;;;;;;5034858;28;20481;-79
2022/05/18 14:58:56;;;;;;;2.15;0.88;;;;;;;;;;5041238;28;20045;-80
2022/05/18 15:01:50;;;;;;;2.00;0.98;;;;;;;;;;5026042;28;20049;-81
2022/05/18 15:04:42;;;;;;;3.58;1.08;;;;;;;;;;5023287;28;20473;-79
2022/05/18 15:07:32;;;;;;;5.03;1.42;;;;;;;;;;5027487;28;20408;-80
2022/05/18 15:10:25;;;;;;;2.05;1.33;;;;;;;;;;5041088;28;20401;-81
2022/05/18 15:13:28;;;;;;;4.40;0.93;;;;;;;;;;5019836;28;20053;-81
2022/05/18 15:16:14;;;;;;;1.80;1.00;;;;;;;;;;5027567;28;20037;-81
2022/05/18 15:19:01;;;;;;;2.95;1.15;;;;;;;;;;5032356;28;20057;-82
2022/05/18 15:21:46;;;;;;;9.73;1.10;;;;;;;;;;5041221;28;20041;-80
2022/05/18 15:24:33;;;;;;;4.15;1.50;;;;;;;;;;5024449;28;20038;-80
2022/05/18 15:27:27;;;;;;;3.92;1.27;;;;;;;;;;5026110;28;20508;-78
2022/05/18 15:30:15;;;;;;;2.33;1.30;;;;;;;;;;5032207;28;20041;-80
2022/05/18 15:33:01;;;;;;;2.40;1.45;;;;;;;;;;5029824;28;20053;-81
2022/05/18 15:36:08;;;;;;;1.25;0.80;;;;;;;;;;5014100;28;20400;-81
2022/05/18 15:38:56;;;;;;;10.05;1.63;;;;;;;;;;5032390;28;20396;-80
2022/05/18 15:41:42;;;;;;;4.53;1.50;;;;;;;;;;5027189;28;20041;-80
2022/05/18 15:44:28;;;;;;;6.35;1.67;;;;;;;;;;5034492;28;20049;-81
2022/05/18 15:47:19;;;;;;;4.97;1.33;;;;;;;;;;5040447;28;20045;-79
2022/05/18 15:50:10;;;;;;;6.68;1.45;;;;;;;;;;5020118;28;20477;-81
2022/05/18 15:52:56;;;;;;;3.90;0.93;;;;;;;;;;5029227;28;20042;-81
2022/05/18 15:56:03;;;;;;;3.95;1.42;;;;;;;;;;5029260;28;20037;-81
2022/05/18 15:58:51;;;;;;;4.68;1.25;;;;;;;;;;5029124;28;20420;-80
2022/05/18 16:01:36;;;;;;;4.30;1.48;;;;;;;;;;5031633;28;20513;-80
2022/05/18 16:04:22;;;;;;;2.90;1.00;;;;;;;;;;5031560;28;20041;-80
2022/05/18 16:07:07;;;;;;;3.70;1.02;;;;;;;;;;5037881;28;20508;-78
2022/05/18 16:09:53;;;;;;;1.38;0.80;;;;;;;;;;5031926;28;20050;-80
2022/05/18 16:12:44;;;;;;;5.35;1.20;;;;;;;;;;5032309;28;20071;-81
2022/05/18 16:15:29;;;;;;;8.45;1.52;;;;;;;;;;5025121;28;20050;-79
2022/05/18 16:18:15;;;;;;;7.60;1.17;;;;;;;;;;5039971;28;20045;-81
2022/05/18 16:21:03;;;;;;;3.60;1.20;;;;;;;;;;5033684;28;20476;-79
2022/05/18 16:23:50;;;;;;;2.25;1.20;;;;;;;;;;5039637;28;20053;-80
2022/05/18 16:26:37;;;;;;;4.68;1.00;;;;;;;;;;5011965;28;20046;-80
2022/05/18 16:29:31;;;;;;;2.25;1.00;;;;;;;;;;5039995;28;20420;-81
2022/05/18 16:32:16;;;;;;;;;;;;;;;;;;5039908;28;20061;-79
2022/05/18 16:35:02;;;;;;;7.82;1.00;;;;;;;;;;5039936;28;19913;-79
2022/05/18 16:37:48;;;;;;;3.92;1.08;;;;;;;;;;5038638;28;20045;-79
2022/05/18 16:40:33;;;;;;;5.65;1.30;;;;;;;;;;5039665;28;20049;-79
2022/05/18 16:43:21;;;;;;;2.83;1.00;;;;;;;;;;5039487;28;20053;-79
2022/05/18 16:46:07;;;;;;;2.58;1.05;;;;;;;;;;5039718;28;20049;-81
2022/05/18 16:48:52;;;;;;;2.90;1.15;;;;;;;;;;5039654;28;20041;-80
2022/05/18 16:51:39;;;;;;;1.52;0.90;;;;;;;;;;5041300;28;20408;-81
2022/05/18 16:54:29;;;;;;;8.82;1.10;;;;;;;;;;5039890;28;20045;-80
2022/05/18 16:57:24;;;;;;;1.20;0.90;;;;;;;;;;5034474;28;20042;-82
2022/05/18 17:00:14;;;;;;;5.93;1.00;;;;;;;;;;5040178;28;20041;-80
2022/05/18 17:03:00;;;;;;;3.47;0.98;;;;;;;;;;5041684;28;20057;-78
2022/05/18 17:05:57;;;;;;;2.72;1.27;;;;;;;;;;5039608;28;20041;-78
2022/05/18 17:08:44;;;;;;;2.78;0.98;;;;;;;;;;5035908;28;20049;-77
2022/05/18 17:11:34;;;;;;;16.17;1.45;;;;;;;;;;5040177;28;20046;-81
2022/05/18 17:14:29;;;;;;;4.68;1.30;;;;;;;;;;5040868;28;20054;-80
2022/05/18 17:17:19;;;;;;;11.27;1.70;;;;;;;;;;5040671;28;20045;-79
2022/05/18 17:20:08;;;;;;;4.80;1.02;;;;;;;;;;5041593;28;20045;-80
2022/05/18 17:22:54;;;;;;;5.15;1.00;;;;;;;;;;5041294;28;20037;-80
2022/05/18 17:25:41;;;;;;;3.08;0.95;;;;;;;;;;5036389;28;20045;-79
2022/05/18 17:28:36;;;;;;;3.60;1.00;;;;;;;;;;5036350;28;20396;-80
2022/05/18 17:31:21;;;;;;;10.25;1.10;;;;;;;;;;5036572;28;20046;-78
2022/05/18 17:34:07;;;;;;;5.95;1.13;;;;;;;;;;5042669;28;20045;-78
2022/05/18 17:36:52;;;;;;;9.90;2.38;;;;;;;;;;5043016;28;20049;-79
2022/05/18 17:39:37;;;;;;;13.85;4.50;;;;;;;;;;5036259;28;20037;-80
2022/05/18 17:42:23;;;;;;;6.13;3.47;;;;;;;;;;5042449;28;20053;-80
2022/05/18 17:45:09;;;;;;;4.93;2.78;;;;;;;;;;5042572;28;20050;-78
2022/05/18 17:47:55;;;;;;;5.03;1.40;;;;;;;;;;5042881;28;20565;-79
2022/05/18 17:50:40;;;;;;;10.90;1.40;;;;;;;;;;5042377;28;20058;-79
2022/05/18 17:53:29;;;;;;;4.00;1.30;;;;;;;;;;5042666;28;20041;-81
2022/05/18 17:56:15;;;;;;;6.05;1.60;;;;;;;;;;5042285;28;20053;-80
2022/05/18 17:59:00;;;;;;;13.55;3.10;;;;;;;;;;5036292;28;20056;-78
2022/05/18 18:01:48;;;;;;;8.40;3.58;;;;;;;;;;5042054;28;20049;-79
2022/05/18 18:04:33;;;;;;;8.60;2.95;;;;;;;;;;5045566;28;20045;-82
2022/05/18 18:07:22;;;;;;;11.55;3.58;;;;;;;;;;5042058;28;20050;-80
2022/05/18 18:10:09;;;;;;;21.95;4.50;;;;;;;;;;5028153;28;20053;-81
2022/05/18 18:12:55;;;;;;;8.70;3.75;;;;;;;;;;5042123;28;20045;-79
2022/05/18 18:15:43;;;;;;;8.10;3.42;;;;;;;;;;5042112;28;20225;-79
2022/05/18 18:18:31;;;;;;;7.32;3.08;;;;;;;;;;5042265;28;20400;-80
2022/05/18 18:21:17;;;;;;;4.72;2.70;;;;;;;;;;5042126;28;20045;-80
2022/05/18 18:24:04;;;;;;;8.80;3.55;;;;;;;;;;5041776;28;20046;-79
2022/05/18 18:26:50;;;;;;;8.70;3.45;;;;;;;;;;5042077;28;20053;-80
2022/05/18 18:29:36;;;;;;;15.95;3.30;;;;;;;;;;5040430;28;20045;-80
2022/05/18 18:32:24;;;;;;;14.30;3.50;;;;;;;;;;5041553;28;20041;-78
2022/05/18 18:35:13;;;;;;;11.40;3.72;;;;;;;;;;5041878;28;20049;-79
2022/05/18 18:37:58;;;;;;;8.02;3.45;;;;;;;;;;5034910;28;20405;-79
2022/05/18 18:40:44;;;;;;;7.53;2.60;;;;;;;;;;5041733;28;20370;-79
2022/05/18 18:43:33;;;;;;;7.65;2.80;;;;;;;;;;5034492;28;20045;-79
2022/05/18 18:46:32;;;;;;;6.13;2.38;;;;;;;;;;5034989;28;20049;-80
2022/05/18 18:49:21;;;;;;;5.78;2.20;;;;;;;;;;5035034;28;20042;-79
2022/05/18 18:55:18;;;;;;;5.60;2.53;;;;;;;;;;5041420;28;20408;-80
2022/05/18 18:58:04;;;;;;;6.82;2.65;;;;;;;;;;5041027;28;20053;-79
2022/05/18 19:00:49;;;;;;;8.55;3.80;;;;;;;;;;5027025;28;20050;-78
2022/05/18 19:03:35;;;;;;;10.48;4.63;;;;;;;;;;5034829;28;20049;-81
2022/05/18 19:06:21;;;;;;;7.78;2.70;;;;;;;;;;5041003;28;20045;-78
2022/05/18 19:09:06;;;;;;;12.85;2.70;;;;;;;;;;5041183;28;20057;-80
2022/05/18 19:11:52;;;;;;;6.78;2.10;;;;;;;;;;5040831;28;20041;-79
2022/05/18 19:14:38;;;;;;;8.13;2.05;;;;;;;;;;5040983;28;20056;-81
2022/05/18 19:17:24;;;;;;;8.40;1.67;;;;;;;;;;5040912;28;20477;-79
2022/05/18 19:20:14;;;;;;;8.05;1.83;;;;;;;;;;5040569;28;20046;-81
2022/05/18 19:23:01;;;;;;;4.47;1.42;;;;;;;;;;5040740;28;20045;-82
2022/05/18 19:25:47;;;;;;;10.23;1.70;;;;;;;;;;5040546;28;20436;-79
2022/05/18 19:28:34;;;;;;;5.25;1.98;;;;;;;;;;5041067;28;20041;-84
2022/05/18 19:31:20;;;;;;;3.55;1.60;;;;;;;;;;5040992;28;20049;-83
2022/05/18 19:34:05;;;;;;;8.82;1.80;;;;;;;;;;5034067;28;20049;-80
2022/05/18 19:36:51;;;;;;;6.18;2.15;;;;;;;;;;5041138;28;20053;-81
2022/05/18 19:39:36;;;;;;;8.55;1.80;;;;;;;;;;5040315;28;20477;-81
2022/05/18 19:42:28;;;;;;;6.88;2.22;;;;;;;;;;5034091;28;20396;-80
2022/05/18 19:45:14;;;;;;;5.93;1.88;;;;;;;;;;5040916;28;20049;-81
2022/05/18 19:48:00;;;;;;;5.10;2.20;;;;;;;;;;5033677;28;20054;-81
2022/05/18 19:50:46;;;;;;;7.22;2.22;;;;;;;;;;5040763;28;20045;-79
2022/05/18 19:53:32;;;;;;;9.73;2.20;;;;;;;;;;5040151;28;20053;-82
2022/05/18 19:56:20;;;;;;;11.65;2.58;;;;;;;;;;5040485;28;20053;-81
2022/05/18 19:59:12;;;;;;;10.55;2.65;;;;;;;;;;5033837;28;20041;-80
2022/05/18 20:01:57;;;;;;;6.28;2.30;;;;;;;;;;5039980;28;20045;-78
2022/05/18 20:04:43;;;;;;;12.25;2.67;;;;;;;;;;5040072;28;20042;-79
2022/05/18 20:07:29;;;;;;;5.60;2.33;;;;;;;;;;5037051;28;20053;-80
2022/05/18 20:10:26;;;;;;;4.07;2.42;;;;;;;;;;5040644;28;20041;-79
2022/05/18 20:13:26;;;;;;;5.07;2.22;;;;;;;;;;5033444;28;20045;-78
2022/05/18 20:16:11;;;;;;;8.98;2.38;;;;;;;;;;5039081;28;20049;-81
2022/05/18 20:18:56;;;;;;;13.48;2.25;;;;;;;;;;5015203;28;20038;-81
2022/05/18 20:21:42;;;;;;;5.03;1.90;;;;;;;;;;5037426;28;20341;-79
2022/05/18 20:24:28;;;;;;;4.97;1.60;;;;;;;;;;5037989;28;20041;-79
2022/05/18 20:27:14;;;;;;;5.93;2.03;;;;;;;;;;5033878;28;20053;-81
2022/05/18 20:29:59;;;;;;;4.03;1.70;;;;;;;;;;5034160;28;20045;-81
2022/05/18 20:32:45;;;;;;;6.63;1.88;;;;;;;;;;5040033;28;20046;-79
2022/05/18 20:35:30;;;;;;;3.80;1.20;;;;;;;;;;5039734;28;20049;-79
2022/05/18 20:38:17;;;;;;;6.60;1.52;;;;;;;;;;5019487;28;20045;-81
2022/05/18 20:41:04;;;;;;;5.43;1.60;;;;;;;;;;5041791;28;20041;-79
2022/05/18 20:43:52;;;;;;;5.18;1.45;;;;;;;;;;5036663;28;20045;-79
2022/05/18 20:46:38;;;;;;;7.20;1.50;;;;;;;;;;5042136;28;20046;-79
2022/05/18 20:49:32;;;;;;;2.33;1.77;;;;;;;;;;5041908;28;20038;-77
2022/05/18 20:52:17;;;;;;;2.72;1.55;;;;;;;;;;5033787;28;20041;-78
2022/05/18 20:55:09;;;;;;;10.38;1.80;;;;;;;;;;5041526;28;20049;-82